createdAt,value
2023-05-06T00:00:23.880Z,250.00
2023-05-06T00:01:23.831Z,248.82
2023-05-06T00:02:23.904Z,249.61
2023-05-06T00:03:24.032Z,248.92
2023-05-06T00:04:23.942Z,248.04
2023-05-06T00:05:23.810Z,248.95
2023-05-06T00:06:23.864Z,249.89
2023-05-06T00:07:23.851Z,249.13
2023-05-06T00:08:23.831Z,249.41
2023-05-06T00:09:23.832Z,249.43
2023-05-06T00:10:23.849Z,245.79
2023-05-06T00:11:23.853Z,243.18
2023-05-06T00:12:23.866Z,244.08
2023-05-06T00:13:23.832Z,244.47
2023-05-06T00:14:23.811Z,245.96
2023-05-06T00:15:23.881Z,248.72
2023-05-06T00:16:23.916Z,249.15
2023-05-06T00:17:23.835Z,250.00
2023-05-06T00:18:23.814Z,249.01
2023-05-06T00:19:23.795Z,250.00
2023-05-06T00:20:23.797Z,249.44
2023-05-06T00:21:23.790Z,249.84
2023-05-06T00:22:23.797Z,248.77
2023-05-06T00:23:23.774Z,249.77
2023-05-06T00:24:23.840Z,248.63
2023-05-06T00:25:23.739Z,248.99
2023-05-06T00:26:23.737Z,248.74
2023-05-06T00:27:23.768Z,248.58
2023-05-06T00:28:23.720Z,248.30
2023-05-06T00:29:23.708Z,249.43
2023-05-06T00:30:23.721Z,248.91
2023-05-06T00:31:23.748Z,249.20
2023-05-06T00:32:23.704Z,249.15
2023-05-06T00:33:23.661Z,249.07
2023-05-06T00:34:23.683Z,249.65
2023-05-06T00:35:23.670Z,249.55
2023-05-06T00:36:23.657Z,250.00
2023-05-06T00:37:23.632Z,250.00
2023-05-06T00:38:23.603Z,249.30
2023-05-06T00:39:23.629Z,249.47
2023-05-06T00:40:23.760Z,249.21
2023-05-06T00:41:23.630Z,248.93
2023-05-06T00:42:23.582Z,249.76
2023-05-06T00:43:23.582Z,249.20
2023-05-06T00:44:23.557Z,249.80
2023-05-06T00:45:23.526Z,249.69
2023-05-06T00:46:23.626Z,249.50
2023-05-06T00:47:23.531Z,249.03
2023-05-06T00:48:23.546Z,248.97
2023-05-06T00:49:23.505Z,249.11
2023-05-06T00:50:23.515Z,245.39
2023-05-06T00:51:23.526Z,242.41
2023-05-06T00:52:23.519Z,239.64
2023-05-06T00:53:23.490Z,234.60
2023-05-06T00:54:23.484Z,232.43
2023-05-06T00:55:23.499Z,232.83
2023-05-06T00:56:23.548Z,236.06
2023-05-06T00:57:23.515Z,237.40
2023-05-06T00:58:23.517Z,234.88
2023-05-06T00:59:23.493Z,231.46
2023-05-06T01:00:23.469Z,227.62
2023-05-06T01:01:23.529Z,225.08
2023-05-06T01:02:26.251Z,224.84
2023-05-06T01:03:23.570Z,224.90
2023-05-06T01:04:23.430Z,225.06
2023-05-06T01:05:23.431Z,225.41
2023-05-06T01:06:23.392Z,226.76
2023-05-06T01:07:23.387Z,229.88
2023-05-06T01:08:23.323Z,231.55
2023-05-06T01:09:23.341Z,229.82
2023-05-06T01:10:23.310Z,226.54
2023-05-06T01:11:23.304Z,225.52
2023-05-06T01:12:23.330Z,224.86
2023-05-06T01:13:23.324Z,222.85
2023-05-06T01:14:23.211Z,222.62
2023-05-06T01:15:23.213Z,220.47
2023-05-06T01:16:23.246Z,221.26
2023-05-06T01:17:23.177Z,220.61
2023-05-06T01:18:23.149Z,223.26
2023-05-06T01:19:23.139Z,221.21
2023-05-06T01:20:23.118Z,218.50
2023-05-06T01:21:23.078Z,217.88
2023-05-06T01:22:23.071Z,215.64
2023-05-06T01:23:23.029Z,212.95
2023-05-06T01:24:22.996Z,207.66
2023-05-06T01:25:22.967Z,203.93
2023-05-06T01:26:22.934Z,202.61
2023-05-06T01:27:22.953Z,201.86
2023-05-06T01:28:23.061Z,206.01
2023-05-06T01:29:22.967Z,212.86
2023-05-06T01:30:22.998Z,217.33
2023-05-06T01:31:23.049Z,220.83
2023-05-06T01:32:22.992Z,222.30
2023-05-06T01:33:22.979Z,223.67
2023-05-06T01:34:23.008Z,225.45
2023-05-06T01:35:23.008Z,226.80
2023-05-06T01:36:23.024Z,228.36
2023-05-06T01:37:23.041Z,230.34
2023-05-06T01:38:23.027Z,231.04
2023-05-06T01:39:23.036Z,231.88
2023-05-06T01:40:23.031Z,232.91
2023-05-06T01:41:23.019Z,234.33
2023-05-06T01:42:23.009Z,235.39
2023-05-06T01:43:23.031Z,236.18
2023-05-06T01:44:23.079Z,238.78
2023-05-06T01:45:23.007Z,238.63
2023-05-06T01:46:23.121Z,238.72
2023-05-06T01:47:23.003Z,239.60
2023-05-06T01:48:22.979Z,241.46
2023-05-06T01:49:23.007Z,241.64
2023-05-06T01:50:22.970Z,242.03
2023-05-06T01:51:22.981Z,242.20
2023-05-06T01:52:22.974Z,243.07
2023-05-06T01:53:22.980Z,243.50
2023-05-06T01:54:22.970Z,245.02
2023-05-06T01:55:22.989Z,245.16
2023-05-06T01:56:22.984Z,244.71
2023-05-06T01:57:22.974Z,245.54
2023-05-06T01:58:22.996Z,246.16
2023-05-06T01:59:22.950Z,246.99
2023-05-06T02:00:23.029Z,247.43
2023-05-06T02:01:23.067Z,248.41
2023-05-06T02:02:22.982Z,248.54
2023-05-06T02:03:23.045Z,248.63
2023-05-06T02:04:22.966Z,248.77
2023-05-06T02:05:22.964Z,248.57
2023-05-06T02:06:22.982Z,248.90
2023-05-06T02:07:22.957Z,248.38
2023-05-06T02:08:22.910Z,249.26
2023-05-06T02:09:22.931Z,249.94
2023-05-06T02:10:22.880Z,249.44
2023-05-06T02:11:22.939Z,249.55
2023-05-06T02:12:22.951Z,250.00
2023-05-06T02:13:23.018Z,250.00
2023-05-06T02:14:22.896Z,248.96
2023-05-06T02:15:22.882Z,248.50
2023-05-06T02:16:22.934Z,248.58
2023-05-06T02:17:22.911Z,248.59
2023-05-06T02:18:22.894Z,247.83
2023-05-06T02:19:22.866Z,248.76
2023-05-06T02:20:22.815Z,247.87
2023-05-06T02:21:22.827Z,248.31
2023-05-06T02:22:22.822Z,248.39
2023-05-06T02:23:22.793Z,247.87
2023-05-06T02:24:22.796Z,249.04
2023-05-06T02:25:22.786Z,249.38
2023-05-06T02:26:22.795Z,248.96
2023-05-06T02:27:22.807Z,249.32
2023-05-06T02:28:22.781Z,249.30
2023-05-06T02:29:22.782Z,249.28
2023-05-06T02:30:22.765Z,248.39
2023-05-06T02:31:22.846Z,248.31
2023-05-06T02:32:22.890Z,247.77
2023-05-06T02:33:22.778Z,246.86
2023-05-06T02:34:22.735Z,246.68
2023-05-06T02:35:22.801Z,247.87
2023-05-06T02:36:22.786Z,247.58
2023-05-06T02:37:22.742Z,247.61
2023-05-06T02:38:22.741Z,243.72
2023-05-06T02:39:22.717Z,238.60
2023-05-06T02:40:22.750Z,233.98
2023-05-06T02:41:22.741Z,233.66
2023-05-06T02:42:23.593Z,232.64
2023-05-06T02:43:22.729Z,230.22
2023-05-06T02:44:22.752Z,230.30
2023-05-06T02:45:22.746Z,230.93
2023-05-06T02:46:22.787Z,234.33
2023-05-06T02:47:22.813Z,240.65
2023-05-06T02:48:23.021Z,242.21
2023-05-06T02:49:22.747Z,242.17
2023-05-06T02:50:22.719Z,241.42
2023-05-06T02:51:22.749Z,239.86
2023-05-06T02:52:22.747Z,236.59
2023-05-06T02:53:22.749Z,234.79
2023-05-06T02:54:22.743Z,233.65
2023-05-06T02:55:22.776Z,234.90
2023-05-06T02:56:22.780Z,234.77
2023-05-06T02:57:22.743Z,232.21
2023-05-06T02:58:22.739Z,229.92
2023-05-06T02:59:22.729Z,228.98
2023-05-06T03:00:22.789Z,228.23
2023-05-06T03:01:22.872Z,228.65
2023-05-06T03:02:22.812Z,228.68
2023-05-06T03:03:22.831Z,227.47
2023-05-06T03:04:22.984Z,228.77
2023-05-06T03:05:22.895Z,226.29
2023-05-06T03:06:22.872Z,225.25
2023-05-06T03:07:22.898Z,223.57
2023-05-06T03:08:22.891Z,221.06
2023-05-06T03:09:22.892Z,221.59
2023-05-06T03:10:22.935Z,221.17
2023-05-06T03:11:22.954Z,221.33
2023-05-06T03:12:22.959Z,221.80
2023-05-06T03:13:23.034Z,224.12
2023-05-06T03:14:22.981Z,224.93
2023-05-06T03:15:22.996Z,225.79
2023-05-06T03:16:23.043Z,227.07
2023-05-06T03:17:23.041Z,228.21
2023-05-06T03:18:23.056Z,226.81
2023-05-06T03:19:23.092Z,226.47
2023-05-06T03:20:23.121Z,225.88
2023-05-06T03:21:23.163Z,226.70
2023-05-06T03:22:23.114Z,229.06
2023-05-06T03:23:23.160Z,229.19
2023-05-06T03:24:23.179Z,227.09
2023-05-06T03:25:23.172Z,228.14
2023-05-06T03:26:23.215Z,230.40
2023-05-06T03:27:23.175Z,231.64
2023-05-06T03:28:23.209Z,232.90
2023-05-06T03:29:23.238Z,235.25
2023-05-06T03:30:23.216Z,237.80
2023-05-06T03:31:23.361Z,239.79
2023-05-06T03:32:23.290Z,238.94
2023-05-06T03:33:23.270Z,238.21
2023-05-06T03:34:23.277Z,236.03
2023-05-06T03:35:23.280Z,231.21
2023-05-06T03:36:23.459Z,228.30
2023-05-06T03:37:23.280Z,226.86
2023-05-06T03:38:23.283Z,229.01
2023-05-06T03:39:23.293Z,232.75
2023-05-06T03:40:23.294Z,235.17
2023-05-06T03:41:23.310Z,235.93
2023-05-06T03:42:23.255Z,236.79
2023-05-06T03:43:23.324Z,232.19
2023-05-06T03:44:23.300Z,228.04
2023-05-06T03:45:23.287Z,224.28
2023-05-06T03:46:23.330Z,224.81
2023-05-06T03:47:23.374Z,228.02
2023-05-06T03:48:23.301Z,227.65
2023-05-06T03:49:23.295Z,225.05
2023-05-06T03:50:23.302Z,223.64
2023-05-06T03:51:23.317Z,223.86
2023-05-06T03:52:23.420Z,223.11
2023-05-06T03:53:24.077Z,221.78
2023-05-06T03:54:23.324Z,220.44
2023-05-06T03:55:23.306Z,219.76
2023-05-06T03:56:23.303Z,219.27
2023-05-06T03:57:23.356Z,219.44
2023-05-06T03:58:23.364Z,219.23
2023-05-06T03:59:23.324Z,223.37
2023-05-06T04:00:23.334Z,226.14
2023-05-06T04:01:23.343Z,226.69
2023-05-06T04:02:23.444Z,224.39
2023-05-06T04:03:23.419Z,218.23
2023-05-06T04:04:23.325Z,213.04
2023-05-06T04:05:23.346Z,210.26
2023-05-06T04:06:23.308Z,209.02
2023-05-06T04:07:23.315Z,209.17
2023-05-06T04:08:23.377Z,206.05
2023-05-06T04:09:23.329Z,206.25
2023-05-06T04:10:23.341Z,203.10
2023-05-06T04:11:23.362Z,201.18
2023-05-06T04:12:23.355Z,200.59
2023-05-06T04:13:23.358Z,200.94
2023-05-06T04:14:23.400Z,201.34
2023-05-06T04:15:23.416Z,202.07
2023-05-06T04:16:23.455Z,202.51
2023-05-06T04:17:23.425Z,203.50
2023-05-06T04:18:23.407Z,204.45
2023-05-06T04:19:23.447Z,204.62
2023-05-06T04:20:23.458Z,206.08
2023-05-06T04:21:23.481Z,207.63
2023-05-06T04:22:23.505Z,208.57
2023-05-06T04:23:23.560Z,209.29
2023-05-06T04:24:23.747Z,210.09
2023-05-06T04:25:23.597Z,212.84
2023-05-06T04:26:23.658Z,212.46
2023-05-06T04:27:23.668Z,212.74
2023-05-06T04:28:23.747Z,211.67
2023-05-06T04:29:23.754Z,211.85
2023-05-06T04:30:23.808Z,213.58
2023-05-06T04:31:23.844Z,216.02
2023-05-06T04:32:23.858Z,216.40
2023-05-06T04:33:23.888Z,218.69
2023-05-06T04:34:23.907Z,219.32
2023-05-06T04:35:23.975Z,218.28
2023-05-06T04:36:23.955Z,218.63
2023-05-06T04:37:23.968Z,217.52
2023-05-06T04:38:24.009Z,216.77
2023-05-06T04:39:24.065Z,215.59
2023-05-06T04:40:24.104Z,215.17
2023-05-06T04:41:24.106Z,214.81
2023-05-06T04:42:24.134Z,215.08
2023-05-06T04:43:24.144Z,215.53
2023-05-06T04:44:24.194Z,213.70
2023-05-06T04:45:24.253Z,214.73
2023-05-06T04:46:24.257Z,219.33
2023-05-06T04:47:24.308Z,225.86
2023-05-06T04:48:24.334Z,228.09
2023-05-06T04:49:24.325Z,228.68
2023-05-06T04:50:24.353Z,226.96
2023-05-06T04:51:24.389Z,225.72
2023-05-06T04:52:24.407Z,226.41
2023-05-06T04:53:25.117Z,229.34
2023-05-06T04:54:24.444Z,231.57
2023-05-06T04:55:24.482Z,233.53
2023-05-06T04:56:24.516Z,236.27
2023-05-06T04:57:24.526Z,236.41
2023-05-06T04:58:24.547Z,236.30
2023-05-06T04:59:24.526Z,235.79
2023-05-06T05:00:24.568Z,237.50
2023-05-06T05:01:24.643Z,238.45
2023-05-06T05:02:24.733Z,238.43
2023-05-06T05:03:24.689Z,239.86
2023-05-06T05:04:24.662Z,240.52
2023-05-06T05:05:24.671Z,238.46
2023-05-06T05:06:24.679Z,235.53
2023-05-06T05:07:24.674Z,232.89
2023-05-06T05:08:24.710Z,232.12
2023-05-06T05:09:24.728Z,232.55
2023-05-06T05:10:24.751Z,233.73
2023-05-06T05:11:24.751Z,235.90
2023-05-06T05:12:24.831Z,235.10
2023-05-06T05:13:24.778Z,233.99
2023-05-06T05:14:24.806Z,234.50
2023-05-06T05:15:24.824Z,237.34
2023-05-06T05:16:24.880Z,238.42
2023-05-06T05:17:24.833Z,236.53
2023-05-06T05:18:24.831Z,232.31
2023-05-06T05:19:24.853Z,229.51
2023-05-06T05:20:24.884Z,229.65
2023-05-06T05:21:24.877Z,229.47
2023-05-06T05:22:24.910Z,228.06
2023-05-06T05:23:24.902Z,227.21
2023-05-06T05:24:24.949Z,225.50
2023-05-06T05:25:24.942Z,223.90
2023-05-06T05:26:24.991Z,222.14
2023-05-06T05:27:24.999Z,220.88
2023-05-06T05:28:25.022Z,215.62
2023-05-06T05:29:25.058Z,213.98
2023-05-06T05:30:25.101Z,211.20
2023-05-06T05:31:25.154Z,209.84
2023-05-06T05:32:25.164Z,210.33
2023-05-06T05:33:25.185Z,211.21
2023-05-06T05:34:25.201Z,208.96
2023-05-06T05:35:25.209Z,204.35
2023-05-06T05:36:25.222Z,201.40
2023-05-06T05:37:25.280Z,203.23
2023-05-06T05:38:25.327Z,201.64
2023-05-06T05:39:25.345Z,202.77
2023-05-06T05:40:25.354Z,203.86
2023-05-06T05:41:25.369Z,201.13
2023-05-06T05:42:25.422Z,200.98
2023-05-06T05:43:25.443Z,199.95
2023-05-06T05:44:25.533Z,201.84
2023-05-06T05:45:25.484Z,206.22
2023-05-06T05:46:25.582Z,209.17
2023-05-06T05:47:25.571Z,210.80
2023-05-06T05:48:25.553Z,210.30
2023-05-06T05:49:25.605Z,209.31
2023-05-06T05:50:25.616Z,212.08
2023-05-06T05:51:25.595Z,214.80
2023-05-06T05:52:25.625Z,217.07
2023-05-06T05:53:25.662Z,217.65
2023-05-06T05:54:25.657Z,219.92
2023-05-06T05:55:25.674Z,217.94
2023-05-06T05:56:25.714Z,216.81
2023-05-06T05:57:25.700Z,218.71
2023-05-06T05:58:25.729Z,220.89
2023-05-06T05:59:25.716Z,222.69
2023-05-06T06:00:25.786Z,223.13
2023-05-06T06:01:25.744Z,223.97
2023-05-06T06:02:25.813Z,222.85
2023-05-06T06:03:25.923Z,224.05
2023-05-06T06:04:25.842Z,225.95
2023-05-06T06:05:25.769Z,226.16
2023-05-06T06:06:25.725Z,227.01
2023-05-06T06:07:25.756Z,227.54
2023-05-06T06:08:25.722Z,228.04
2023-05-06T06:09:25.712Z,227.73
2023-05-06T06:10:25.722Z,228.11
2023-05-06T06:11:25.769Z,224.08
2023-05-06T06:12:25.761Z,221.78
2023-05-06T06:13:27.903Z,224.00
2023-05-06T06:14:25.697Z,225.66
2023-05-06T06:15:25.697Z,227.48
2023-05-06T06:16:25.681Z,228.33
2023-05-06T06:17:25.626Z,225.62
2023-05-06T06:18:25.570Z,221.12
2023-05-06T06:19:25.561Z,217.58
2023-05-06T06:20:25.493Z,216.81
2023-05-06T06:21:25.508Z,215.73
2023-05-06T06:22:25.470Z,214.68
2023-05-06T06:23:25.425Z,216.36
2023-05-06T06:24:25.412Z,217.04
2023-05-06T06:25:25.365Z,216.63
2023-05-06T06:26:25.358Z,218.18
2023-05-06T06:27:25.347Z,220.05
2023-05-06T06:28:25.314Z,222.10
2023-05-06T06:29:25.281Z,223.35
2023-05-06T06:30:25.282Z,224.99
2023-05-06T06:31:25.320Z,228.83
2023-05-06T06:32:25.289Z,230.93
2023-05-06T06:33:25.200Z,233.99
2023-05-06T06:34:25.151Z,233.76
2023-05-06T06:35:25.164Z,228.73
2023-05-06T06:36:25.164Z,223.19
2023-05-06T06:37:25.100Z,219.84
2023-05-06T06:38:25.085Z,219.98
2023-05-06T06:39:25.078Z,218.83
2023-05-06T06:40:25.013Z,217.85
2023-05-06T06:41:24.998Z,216.57
2023-05-06T06:42:25.265Z,215.17
2023-05-06T06:43:24.985Z,211.11
2023-05-06T06:44:24.931Z,211.29
2023-05-06T06:45:24.927Z,209.04
2023-05-06T06:46:24.917Z,208.09
2023-05-06T06:47:24.908Z,208.18
2023-05-06T06:48:24.908Z,208.47
2023-05-06T06:49:24.842Z,210.38
2023-05-06T06:50:24.823Z,210.70
2023-05-06T06:51:24.764Z,210.50
2023-05-06T06:52:24.783Z,206.85
2023-05-06T06:53:24.749Z,209.36
2023-05-06T06:54:24.733Z,208.98
2023-05-06T06:55:24.705Z,210.16
2023-05-06T06:56:24.655Z,206.40
2023-05-06T06:57:24.624Z,202.42
2023-05-06T06:58:24.604Z,202.68
2023-05-06T06:59:24.583Z,199.10
2023-05-06T07:00:24.595Z,198.36
2023-05-06T07:01:24.523Z,195.56
2023-05-06T07:02:24.588Z,194.09
2023-05-06T07:03:24.501Z,189.62
2023-05-06T07:04:24.509Z,186.39
2023-05-06T07:05:24.475Z,180.72
2023-05-06T07:06:24.450Z,177.69
2023-05-06T07:07:24.435Z,174.71
2023-05-06T07:08:24.400Z,172.95
2023-05-06T07:09:24.377Z,170.53
2023-05-06T07:10:24.400Z,169.23
2023-05-06T07:11:24.341Z,169.43
2023-05-06T07:12:24.331Z,167.73
2023-05-06T07:13:24.427Z,164.94
2023-05-06T07:14:24.271Z,161.30
2023-05-06T07:15:24.251Z,158.51
2023-05-06T07:16:24.276Z,158.73
2023-05-06T07:17:24.263Z,160.43
2023-05-06T07:18:24.245Z,162.38
2023-05-06T07:19:24.176Z,162.78
2023-05-06T07:20:24.258Z,161.35
2023-05-06T07:21:24.088Z,163.93
2023-05-06T07:22:24.077Z,163.15
2023-05-06T07:23:24.044Z,164.33
2023-05-06T07:24:24.068Z,162.20
2023-05-06T07:25:24.072Z,158.79
2023-05-06T07:26:24.074Z,158.98
2023-05-06T07:27:24.143Z,160.54
2023-05-06T07:28:24.121Z,160.48
2023-05-06T07:29:24.138Z,161.89
2023-05-06T07:30:24.203Z,159.21
2023-05-06T07:31:24.190Z,155.96
2023-05-06T07:32:24.224Z,154.23
2023-05-06T07:33:24.207Z,155.81
2023-05-06T07:34:24.225Z,155.97
2023-05-06T07:35:24.225Z,153.70
2023-05-06T07:36:24.342Z,154.98
2023-05-06T07:37:24.259Z,152.28
2023-05-06T07:38:24.254Z,153.35
2023-05-06T07:39:24.280Z,152.01
2023-05-06T07:40:24.302Z,153.33
2023-05-06T07:41:24.335Z,153.08
2023-05-06T07:42:24.311Z,153.50
2023-05-06T07:43:24.334Z,151.37
2023-05-06T07:44:24.319Z,150.88
2023-05-06T07:45:24.368Z,148.31
2023-05-06T07:46:24.428Z,150.17
2023-05-06T07:47:24.439Z,150.23
2023-05-06T07:48:24.459Z,154.74
2023-05-06T07:49:24.368Z,160.72
2023-05-06T07:50:24.367Z,167.47
2023-05-06T07:51:24.344Z,171.67
2023-05-06T07:52:24.378Z,170.07
2023-05-06T07:53:24.355Z,171.21
2023-05-06T07:54:24.377Z,174.21
2023-05-06T07:55:24.346Z,176.64
2023-05-06T07:56:24.361Z,180.54
2023-05-06T07:57:24.351Z,180.11
2023-05-06T07:58:24.313Z,177.67
2023-05-06T07:59:24.310Z,179.46
2023-05-06T08:00:24.341Z,183.56
2023-05-06T08:01:24.318Z,186.27
2023-05-06T08:02:24.318Z,188.56
2023-05-06T08:03:24.397Z,190.48
2023-05-06T08:04:24.274Z,192.83
2023-05-06T08:05:24.247Z,192.16
2023-05-06T08:06:24.203Z,191.09
2023-05-06T08:07:24.182Z,186.44
2023-05-06T08:08:24.256Z,184.82
2023-05-06T08:09:24.166Z,185.07
2023-05-06T08:10:24.148Z,185.50
2023-05-06T08:11:24.129Z,188.98
2023-05-06T08:12:24.169Z,192.58
2023-05-06T08:13:24.118Z,198.38
2023-05-06T08:14:24.071Z,202.64
2023-05-06T08:15:24.071Z,203.80
2023-05-06T08:16:25.463Z,204.89
2023-05-06T08:17:24.061Z,206.55
2023-05-06T08:18:24.121Z,207.65
2023-05-06T08:19:23.984Z,209.71
2023-05-06T08:20:23.997Z,210.20
2023-05-06T08:21:23.945Z,211.64
2023-05-06T08:22:23.933Z,212.03
2023-05-06T08:23:23.907Z,213.05
2023-05-06T08:24:24.017Z,214.22
2023-05-06T08:25:23.886Z,215.13
2023-05-06T08:26:23.853Z,215.13
2023-05-06T08:27:23.889Z,217.93
2023-05-06T08:28:25.306Z,215.13
2023-05-06T08:29:23.830Z,196.97
2023-05-06T08:30:23.800Z,184.44
2023-05-06T08:31:23.800Z,173.29
2023-05-06T08:32:23.878Z,176.29
2023-05-06T08:33:23.735Z,167.97
2023-05-06T08:34:23.749Z,162.68
2023-05-06T08:35:23.742Z,153.05
2023-05-06T08:36:23.704Z,151.71
2023-05-06T08:37:23.723Z,149.19
2023-05-06T08:38:23.732Z,148.33
2023-05-06T08:39:23.712Z,148.28
2023-05-06T08:40:23.690Z,151.62
2023-05-06T08:41:23.685Z,151.60
2023-05-06T08:42:23.750Z,145.92
2023-05-06T08:43:23.670Z,141.29
2023-05-06T08:44:23.621Z,141.99
2023-05-06T08:45:23.688Z,142.07
2023-05-06T08:46:23.621Z,138.70
2023-05-06T08:47:23.600Z,137.71
2023-05-06T08:48:23.645Z,132.02
2023-05-06T08:49:23.587Z,129.31
2023-05-06T08:50:23.617Z,124.31
2023-05-06T08:51:25.436Z,121.99
2023-05-06T08:52:23.712Z,117.79
2023-05-06T08:53:23.605Z,113.81
2023-05-06T08:54:23.564Z,112.87
2023-05-06T08:55:23.583Z,112.82
2023-05-06T08:56:23.636Z,116.66
2023-05-06T08:57:23.574Z,115.67
2023-05-06T08:58:23.557Z,115.16
2023-05-06T08:59:23.547Z,119.03
2023-05-06T09:00:23.549Z,118.78
2023-05-06T09:01:23.597Z,120.25
2023-05-06T09:02:23.656Z,117.41
2023-05-06T09:03:23.768Z,116.69
2023-05-06T09:04:23.555Z,112.53
2023-05-06T09:05:23.565Z,110.09
2023-05-06T09:06:23.552Z,111.94
2023-05-06T09:07:23.553Z,107.12
2023-05-06T09:08:23.544Z,102.55
2023-05-06T09:09:23.566Z,104.02
2023-05-06T09:10:23.563Z,103.62
2023-05-06T09:11:23.585Z,102.16
2023-05-06T09:12:23.667Z,104.70
2023-05-06T09:13:23.562Z,108.01
2023-05-06T09:14:23.589Z,111.15
2023-05-06T09:15:23.591Z,115.06
2023-05-06T09:16:23.649Z,113.71
2023-05-06T09:17:23.742Z,117.28
2023-05-06T09:18:23.610Z,117.70
2023-05-06T09:19:23.607Z,116.94
2023-05-06T09:20:23.610Z,115.48
2023-05-06T09:21:23.623Z,115.44
2023-05-06T09:22:23.648Z,116.62
2023-05-06T09:23:23.655Z,116.69
2023-05-06T09:24:23.640Z,114.62
2023-05-06T09:25:23.627Z,111.47
2023-05-06T09:26:23.643Z,113.91
2023-05-06T09:27:23.687Z,119.12
2023-05-06T09:28:23.709Z,121.48
2023-05-06T09:29:23.716Z,116.34
2023-05-06T09:30:23.699Z,113.80
2023-05-06T09:31:23.765Z,115.30
2023-05-06T09:32:23.775Z,118.34
2023-05-06T09:33:23.781Z,122.70
2023-05-06T09:34:23.781Z,124.17
2023-05-06T09:35:23.793Z,123.36
2023-05-06T09:36:23.814Z,120.69
2023-05-06T09:37:23.837Z,121.32
2023-05-06T09:38:23.860Z,121.36
2023-05-06T09:39:23.874Z,123.31
2023-05-06T09:40:23.865Z,119.15
2023-05-06T09:41:23.879Z,120.31
2023-05-06T09:42:23.923Z,120.10
2023-05-06T09:43:23.897Z,122.38
2023-05-06T09:44:23.968Z,123.38
2023-05-06T09:45:23.946Z,123.18
2023-05-06T09:46:24.062Z,125.71
2023-05-06T09:47:24.083Z,127.71
2023-05-06T09:48:24.043Z,131.39
2023-05-06T09:49:24.083Z,134.30
2023-05-06T09:50:24.084Z,130.30
2023-05-06T09:51:24.101Z,130.47
2023-05-06T09:52:24.125Z,131.70
2023-05-06T09:53:24.130Z,129.66
2023-05-06T09:54:24.145Z,129.87
2023-05-06T09:55:24.182Z,127.94
2023-05-06T09:56:24.190Z,121.60
2023-05-06T09:57:24.192Z,116.83
2023-05-06T09:58:24.242Z,119.07
2023-05-06T09:59:24.224Z,120.32
2023-05-06T10:00:24.281Z,122.74
2023-05-06T10:02:24.307Z,125.68
2023-05-06T10:03:24.303Z,125.78
2023-05-06T10:04:25.608Z,123.79
2023-05-06T10:05:24.212Z,121.36
2023-05-06T10:06:24.122Z,121.12
2023-05-06T10:07:24.112Z,123.66
2023-05-06T10:08:24.088Z,126.15
2023-05-06T10:09:24.066Z,132.19
2023-05-06T10:10:25.402Z,134.58
2023-05-06T10:11:24.053Z,139.49
2023-05-06T10:12:24.033Z,143.64
2023-05-06T10:13:24.067Z,150.23
2023-05-06T10:14:23.960Z,153.44
2023-05-06T10:15:23.952Z,156.63
2023-05-06T10:16:24.059Z,160.46
2023-05-06T10:17:24.003Z,161.64
2023-05-06T10:18:23.866Z,162.59
2023-05-06T10:19:23.869Z,163.88
2023-05-06T10:20:23.876Z,165.96
2023-05-06T10:21:23.822Z,168.49
2023-05-06T10:22:23.820Z,170.37
2023-05-06T10:23:23.767Z,171.19
2023-05-06T10:24:23.869Z,172.57
2023-05-06T10:25:23.782Z,175.78
2023-05-06T10:26:23.740Z,177.04
2023-05-06T10:27:23.737Z,179.26
2023-05-06T10:28:30.371Z,180.92
2023-05-06T10:29:24.692Z,181.00
2023-05-06T10:30:23.640Z,181.59
2023-05-06T10:31:23.801Z,183.76
2023-05-06T10:32:23.659Z,189.30
2023-05-06T10:33:23.566Z,195.69
2023-05-06T10:34:23.514Z,197.72
2023-05-06T10:35:23.497Z,201.51
2023-05-06T10:36:23.488Z,204.47
2023-05-06T10:37:23.505Z,201.85
2023-05-06T10:38:23.408Z,201.37
2023-05-06T10:39:23.402Z,201.70
2023-05-06T10:40:23.368Z,204.58
2023-05-06T10:41:23.356Z,205.20
2023-05-06T10:42:23.334Z,206.54
2023-05-06T10:43:23.299Z,208.03
2023-05-06T10:44:23.259Z,211.24
2023-05-06T10:45:23.248Z,213.22
2023-05-06T10:46:23.207Z,217.71
2023-05-06T10:47:23.194Z,218.28
2023-05-06T10:48:23.272Z,221.95
2023-05-06T10:49:23.162Z,221.54
2023-05-06T10:50:23.179Z,221.79
2023-05-06T10:51:23.191Z,221.17
2023-05-06T10:52:23.201Z,222.25
2023-05-06T10:53:23.251Z,223.15
2023-05-06T10:54:23.309Z,222.30
2023-05-06T10:55:23.360Z,223.23
2023-05-06T10:56:23.334Z,222.81
2023-05-06T10:57:23.399Z,225.36
2023-05-06T10:58:23.410Z,226.21
2023-05-06T10:59:23.456Z,228.94
2023-05-06T11:00:23.500Z,230.70
2023-05-06T11:01:23.514Z,232.30
2023-05-06T11:02:23.631Z,231.63
2023-05-06T11:03:23.849Z,230.92
2023-05-06T11:04:23.733Z,229.50
2023-05-06T11:05:23.631Z,229.90
2023-05-06T11:06:23.660Z,232.28
2023-05-06T11:07:23.681Z,233.20
2023-05-06T11:08:23.739Z,233.93
2023-05-06T11:09:23.760Z,230.72
2023-05-06T11:10:23.805Z,230.30
2023-05-06T11:11:23.846Z,227.02
2023-05-06T11:12:23.876Z,227.30
2023-05-06T11:13:24.058Z,227.56
2023-05-06T11:14:23.932Z,229.92
2023-05-06T11:15:23.971Z,230.45
2023-05-06T11:16:23.997Z,225.11
2023-05-06T11:17:24.051Z,221.52
2023-05-06T11:18:24.056Z,223.64
2023-05-06T11:19:24.057Z,227.15
2023-05-06T11:20:24.150Z,225.69
2023-05-06T11:21:24.107Z,227.38
2023-05-06T11:22:24.157Z,227.28
2023-05-06T11:23:24.217Z,223.93
2023-05-06T11:24:24.246Z,224.73
2023-05-06T11:25:24.262Z,226.62
2023-05-06T11:26:24.303Z,226.89
2023-05-06T11:27:24.360Z,226.63
2023-05-06T11:28:24.333Z,227.70
2023-05-06T11:29:24.368Z,219.58
2023-05-06T11:30:24.390Z,218.71
2023-05-06T11:31:24.456Z,213.97
2023-05-06T11:32:24.497Z,217.82
2023-05-06T11:33:24.464Z,216.42
2023-05-06T11:34:24.558Z,198.32
2023-05-06T11:35:24.556Z,164.27
2023-05-06T11:36:24.608Z,147.85
2023-05-06T11:37:24.658Z,147.69
2023-05-06T11:38:24.679Z,146.76
2023-05-06T11:39:24.706Z,142.88
2023-05-06T11:40:24.758Z,132.84
2023-05-06T11:41:24.772Z,130.71
2023-05-06T11:42:24.834Z,134.35
2023-05-06T11:43:24.835Z,143.00
2023-05-06T11:44:24.905Z,147.87
2023-05-06T11:45:24.932Z,152.20
2023-05-06T11:46:24.985Z,153.96
2023-05-06T11:47:25.051Z,159.71
2023-05-06T11:48:25.036Z,162.21
2023-05-06T11:49:25.067Z,165.83
2023-05-06T11:50:25.068Z,167.06
2023-05-06T11:51:25.107Z,169.09
2023-05-06T11:52:25.217Z,170.81
2023-05-06T11:53:25.176Z,170.50
2023-05-06T11:54:25.214Z,163.88
2023-05-06T11:55:25.249Z,162.12
2023-05-06T11:56:25.301Z,162.68
2023-05-06T11:57:25.299Z,165.80
2023-05-06T11:58:25.352Z,163.40
2023-05-06T11:59:25.339Z,162.46
2023-05-06T12:00:25.361Z,163.22
2023-05-06T12:01:25.399Z,165.73
2023-05-06T12:02:25.493Z,169.68
2023-05-06T12:03:25.604Z,168.83
2023-05-06T12:04:25.578Z,167.19
2023-05-06T12:05:25.502Z,168.04
2023-05-06T12:06:25.544Z,171.43
2023-05-06T12:07:25.581Z,175.27
2023-05-06T12:08:27.981Z,173.98
2023-05-06T12:09:25.579Z,169.14
2023-05-06T12:10:25.554Z,165.95
2023-05-06T12:11:25.524Z,160.77
2023-05-06T12:12:25.491Z,158.16
2023-05-06T12:13:25.521Z,161.71
2023-05-06T12:14:25.463Z,165.14
2023-05-06T12:15:25.429Z,173.32
2023-05-06T12:16:25.419Z,171.33
2023-05-06T12:17:25.426Z,159.96
2023-05-06T12:18:25.335Z,158.72
2023-05-06T12:19:25.320Z,165.28
2023-05-06T12:20:25.257Z,163.88
2023-05-06T12:21:25.231Z,160.62
2023-05-06T12:22:25.231Z,159.07
2023-05-06T12:23:25.183Z,159.60
2023-05-06T12:24:25.229Z,159.95
2023-05-06T12:25:25.105Z,162.22
2023-05-06T12:26:25.082Z,165.78
2023-05-06T12:27:25.052Z,167.41
2023-05-06T12:28:25.079Z,168.75
2023-05-06T12:29:25.012Z,162.14